Flight Track Log - Related Links

Times and Time Zones

All times are in EDT time to prevent confusion due to time zone crossing. See the EJA831 flight status page for this flight to view local times or setup timezone preferences in your user account.

Time Position Orientation Groundspeed Altitude Reporting Facility
EDT Latitude Longitude Course Direction KTS MPH feet Rate Location/Type
Fri 08:01:14 AM 40.8167 -74.1167 270° West 189 217 1,500  Level New TRACON
Fri 08:02:14 AM 40.8167 -74.1833 270° West 192 221 2,600 2,095 Climbing New TRACON
Fri 08:03:20 AM 40.8333 -74.2500 288° West 241 277 5,900 1,667 Climbing New TRACON
Fri 08:04:20 AM 40.9167 -74.2333 North 283 326 6,100 100 Climbing New TRACON
Fri 08:05:20 AM 41.0000 -74.2000 17° North 288 331 6,100  Level New TRACON
Fri 08:06:20 AM 41.0667 -74.1667 21° North 285 328 6,100 553 Level New TRACON
Fri 08:07:52 AM 41.1647 -74.1056 25° Northeast 297 342 7,500 1,579 Climbing Boston Center
Fri 08:08:52 AM 41.1936 -73.9819 73° East 284 327 10,100 2,350 Climbing Boston Center
Fri 08:09:52 AM 41.2181 -73.8722 73° East 316 364 12,200 2,300 Climbing Boston Center
Fri 08:10:52 AM 41.2489 -73.7322 74° East 342 394 14,700 2,300 Climbing Boston Center
Fri 08:11:52 AM 41.2750 -73.6167 73° East 356 410 16,800 2,300 Climbing Boston Center
Fri 08:12:52 AM 41.3097 -73.4792 71° East 356 410 19,300 2,250 Climbing Boston Center
Fri 08:13:52 AM 41.3381 -73.3442 74° East 361 415 21,300 1,900 Climbing Boston Center
Fri 08:14:52 AM 41.3703 -73.2092 72° East 367 422 23,100 1,800 Climbing Boston Center
Fri 08:15:52 AM 41.4108 -73.0767 68° East 372 428 24,900 1,800 Climbing Boston Center
Fri 08:16:52 AM 41.4675 -72.9581 57° Northeast 377 434 26,700 1,350 Climbing Boston Center
Fri 08:17:52 AM 41.5264 -72.8339 58° Northeast 384 442 27,600 900 Climbing Boston Center
Fri 08:18:52 AM 41.5789 -72.7119 60° Northeast 379 436 28,500 700 Climbing Boston Center
Fri 08:19:52 AM 41.6333 -72.5928 59° Northeast 403 464 29,000 250 Climbing Boston Center
Fri 08:20:52 AM 41.6981 -72.4567 57° Northeast 414 476 29,000  Level Boston Center
Fri 08:21:52 AM 41.7625 -72.3150 59° Northeast 424 488 29,000  Level Boston Center
Fri 08:22:52 AM 41.8292 -72.1697 58° Northeast 437 503 29,000  Level Boston Center
Fri 08:23:52 AM 41.8933 -72.0303 58° Northeast 442 509 29,000  Level Boston Center
Fri 08:24:52 AM 41.9550 -71.8872 60° Northeast 442 509 29,000  Level Boston Center
Fri 08:25:52 AM 42.0189 -71.7472 58° Northeast 442 509 29,000  Level Boston Center
Fri 08:26:52 AM 42.0847 -71.6064 58° Northeast 442 509 29,000  Level Boston Center
Fri 08:27:52 AM 42.1564 -71.4572 57° Northeast 442 509 29,000  Level Boston Center
Fri 08:28:52 AM 42.2197 -71.3158 59° Northeast 437 503 29,000  Level Boston Center
Fri 08:29:52 AM 42.2828 -71.1744 59° Northeast 437 503 29,000 -450 Level Boston Center
Fri 08:30:52 AM 42.3478 -71.0242 60° Northeast 442 509 28,100 -909 Descending Boston Center
Fri 08:32:04 AM 42.4564 -70.8894 42° Northeast 442 509 27,000 -818 Descending Boston Center
Fri 08:33:04 AM 42.5364 -70.7944 41° Northeast 436 502 26,300 -800 Descending Boston Center
Fri 08:34:04 AM 42.6350 -70.6958 36° Northeast 430 495 25,400 -900 Descending Boston Center
Fri 08:35:04 AM 42.7381 -70.6194 29° Northeast 430 495 24,500 -700 Descending Boston Center
Fri 08:36:04 AM 42.8497 -70.5708 18° North 410 472 24,000 -250 Descending Boston Center
Fri 08:37:04 AM 42.9508 -70.4969 28° Northeast 410 472 24,000 -350 Level Boston Center
Fri 08:38:04 AM 43.0406 -70.3861 42° Northeast 418 481 23,300 -1,350 Descending Boston Center
Fri 08:39:04 AM 43.1239 -70.2808 43° Northeast 418 481 21,300 -1,950 Descending Boston Center
Fri 08:40:04 AM 43.2094 -70.1753 42° Northeast 418 481 19,400 -2,100 Descending Boston Center
Fri 08:41:04 AM 43.3011 -70.0636 42° Northeast 401 461 17,100 -2,000 Descending Boston Center
Fri 08:42:04 AM 43.3719 -69.9722 43° Northeast 396 456 15,400 -1,900 Descending Boston Center
Fri 08:43:04 AM 43.4572 -69.8714 41° Northeast 373 429 13,300 -1,900 Descending Boston Center
Fri 08:44:04 AM 43.5219 -69.7856 44° Northeast 360 414 11,600 -1,750 Descending Boston Center
Fri 08:45:04 AM 43.5992 -69.6992 39° Northeast 340 391 9,800 -1,850 Descending Boston Center
Fri 08:46:04 AM 43.6603 -69.6419 34° Northeast 307 353 7,900 -1,850 Descending Boston Center
Fri 08:47:04 AM 43.7336 -69.5722 34° Northeast 295 339 6,100 -1,700 Descending Boston Center
Fri 08:48:04 AM 43.7928 -69.5147 35° Northeast 295 339 4,500 -1,700 Descending Boston Center
Fri 08:49:04 AM 43.8597 -69.4511 34° Northeast 277 319 2,700 -1,000 Descending Boston Center
Fri 08:50:04 AM 43.9086 -69.4025 36° Northeast 250 288 2,500 -100 Descending Boston Center
Fri 08:51:04 AM 43.9697 -69.3533 30° Northeast 231 266 2,500  Level Boston Center
Fri 08:52:04 AM 44.0189 -69.3219 25° Northeast 219 252 2,500  Level Boston Center
Fri 08:53:04 AM 44.0722 -69.2903 23° Northeast 208 239 2,500  Level Boston Center
Fri 08:54:04 AM 44.1092 -69.2681 23° Northeast 176 203 2,500 -550 Level Boston Center
Fri 08:55:04 AM 44.0908 -69.2053 112° Southeast 118 136 1,400 -900 Descending Boston Center
Fri 08:56:04 AM 44.0750 -69.1628 117° Southeast 118 136 700 -350 Descending Boston Center
Fri 08:57:04 AM 44.0758 -69.1222 88° East 118 136 700  Level Boston Center
Fri 08:59:00 AM 44.0601 -69.0993 112° Southeast  Level Estimated
Fri 09:06:00 AM 44.0601 -69.0993 112° Southeast  Level Estimated
Fri 09:07:00 AM 44.0601 -69.0993 112° Southeast  Level Estimated
Fri 09:08:00 AM 44.0601 -69.0993 112° Southeast  Level Estimated
Fri 09:09:00 AM 44.0601 -69.0993 112° Southeast  Level Estimated
Fri 09:10:00 AM 44.0601 -69.0993 112° Southeast  Level Estimated
Fri 09:11:00 AM 44.0601 -69.0993 112° Southeast  Level Estimated
Fri 09:12:00 AM 44.0601 -69.0993 112° Southeast  Level Estimated
Fri 09:13:00 AM 44.0601 -69.0993 112° Southeast  Level Estimated

Login

Don't have an account? Register now (free) for customized features, flight alerts, and more!